Scanlon, Minnesota
Current Conditions -  °F | °C
As of 3:37 AM on Sunday 26 Oct 2014 (Local Time) from KCOQ Reporting Station
Clear Clear  
Wind Chill: 32°   Ceiling: Unl
Heat Index: 37°   Visibility: 10mi
Dew Point: 27°   Wind: 7mph
Humidity: 65%   Direction: 270°W
Pressure: 29.98"   Gusts: NA
Location:  46.7232°N, 92.5588°W
Report Text: KCOQ 260837Z AUTO 27006KT 10SM CLR 03/M03 A2998 RMK AO2
Loading
Personal Weather Stations






























Interactive Weather Map
Tropical Storm Tracking
New forecast layout! Learn more

10-Day Weather Forecast

Advertisements
Track Severe Weather on mobile